Time;durP1;ratioP1;P1;durP2;ratioP2;P2;SDS_P1;SDS_P2;PMS_P1;PMS_P2;Temp;Humidity;BMP_temperature;BMP_pressure;BME280_temperature;BME280_humidity;BME280_pressure;Samples;Min_cycle;Max_cycle;Signal;HPM_P1;HPM_P2
2023/03/10 00:01:12;;;;;;;2.22;1.80;;;;;;;;;;4934437;28;20047;-85
2023/03/10 00:03:42;;;;;;;0.70;0.70;;;;;;;;;;4962948;28;20047;-85
2023/03/10 00:06:10;;;;;;;0.85;0.60;;;;;;;;;;4938669;28;20043;-85
2023/03/10 00:08:44;;;;;;;2.20;2.00;;;;;;;;;;4946843;28;20051;-85
2023/03/10 00:11:11;;;;;;;0.68;0.65;;;;;;;;;;4954622;28;20309;-85
2023/03/10 00:13:39;;;;;;;0.80;0.70;;;;;;;;;;4984220;23;20066;-86
2023/03/10 00:16:10;;;;;;;0.60;0.52;;;;;;;;;;4948980;28;20381;-86
2023/03/10 00:18:41;;;;;;;1.00;0.57;;;;;;;;;;4968879;28;20054;-86
2023/03/10 00:21:13;;;;;;;0.55;0.40;;;;;;;;;;4967550;28;20061;-87
2023/03/10 00:23:40;;;;;;;2.15;0.60;;;;;;;;;;4947868;28;20059;-86
2023/03/10 00:26:12;;;;;;;0.95;0.50;;;;;;;;;;4951871;29;20047;-86
2023/03/10 00:28:42;;;;;;;0.75;0.75;;;;;;;;;;4961642;28;20035;-86
2023/03/10 00:31:11;;;;;;;1.13;0.65;;;;;;;;;;4972427;28;20054;-86
2023/03/10 00:33:39;;;;;;;1.60;0.98;;;;;;;;;;4960762;28;20054;-86
2023/03/10 00:36:09;;;;;;;1.08;0.65;;;;;;;;;;4972366;28;20055;-86
2023/03/10 00:38:36;;;;;;;0.75;0.50;;;;;;;;;;4949466;28;20050;-86
2023/03/10 00:41:08;;;;;;;1.77;0.85;;;;;;;;;;4937239;28;20058;-86
2023/03/10 00:43:39;;;;;;;1.00;0.60;;;;;;;;;;4961703;28;20058;-86
2023/03/10 00:46:07;;;;;;;1.33;0.70;;;;;;;;;;4966211;28;20076;-86
2023/03/10 00:48:34;;;;;;;0.93;0.57;;;;;;;;;;4960069;28;20050;-86
2023/03/10 00:51:02;;;;;;;1.10;0.60;;;;;;;;;;4955871;28;20051;-86
2023/03/10 00:53:33;;;;;;;1.25;0.82;;;;;;;;;;4959881;28;20046;-86
2023/03/10 00:56:02;;;;;;;0.88;0.60;;;;;;;;;;4966057;28;20058;-86
2023/03/10 00:58:59;;;;;;;2.03;1.02;;;;;;;;;;4969821;28;20043;-86
2023/03/10 01:01:32;;;;;;;2.38;0.85;;;;;;;;;;4965294;28;20505;-86
2023/03/10 01:04:03;;;;;;;0.52;0.35;;;;;;;;;;4963123;28;20053;-86
2023/03/10 01:06:31;;;;;;;3.35;0.75;;;;;;;;;;4960699;28;20051;-86
2023/03/10 01:08:58;;;;;;;1.35;0.73;;;;;;;;;;4977574;28;20051;-87
2023/03/10 01:11:30;;;;;;;2.45;0.68;;;;;;;;;;4959034;28;20054;-87
2023/03/10 01:14:03;;;;;;;0.90;0.70;;;;;;;;;;4943562;28;20053;-86
2023/03/10 01:16:34;;;;;;;0.68;0.43;;;;;;;;;;4952528;28;20062;-86
2023/03/10 01:19:04;;;;;;;0.52;0.50;;;;;;;;;;4964267;28;20055;-86
2023/03/10 01:21:36;;;;;;;4.75;0.75;;;;;;;;;;4943085;28;20058;-85
2023/03/10 01:24:14;;;;;;;1.50;0.68;;;;;;;;;;4970477;28;20520;-86
2023/03/10 01:26:43;;;;;;;1.88;0.57;;;;;;;;;;4950325;28;20745;-86
2023/03/10 01:29:11;;;;;;;1.42;0.77;;;;;;;;;;4971089;28;20054;-86
2023/03/10 01:31:41;;;;;;;1.15;0.57;;;;;;;;;;4964095;28;20060;-86
2023/03/10 01:34:09;;;;;;;1.50;0.57;;;;;;;;;;4964763;28;20509;-86
2023/03/10 01:36:36;;;;;;;0.63;0.50;;;;;;;;;;4950223;28;20078;-86
2023/03/10 01:39:03;;;;;;;0.50;0.50;;;;;;;;;;4949083;28;20058;-85
2023/03/10 01:41:38;;;;;;;0.95;0.52;;;;;;;;;;4950115;28;20054;-86
2023/03/10 01:44:15;;;;;;;2.25;0.60;;;;;;;;;;4938478;28;20043;-86
2023/03/10 01:46:47;;;;;;;1.10;0.75;;;;;;;;;;4952493;28;20051;-86
2023/03/10 01:49:37;;;;;;;0.70;0.40;;;;;;;;;;4947920;28;20059;-86
2023/03/10 01:52:15;;;;;;;0.60;0.50;;;;;;;;;;4958573;28;20574;-86
2023/03/10 01:54:45;;;;;;;;;;;;;;;;;;4941608;28;20594;-86
2023/03/10 01:57:15;;;;;;;2.05;0.40;;;;;;;;;;4959894;28;19923;-86
2023/03/10 01:59:45;;;;;;;0.57;0.50;;;;;;;;;;4966448;28;20055;-86
2023/03/10 02:02:16;;;;;;;1.77;0.88;;;;;;;;;;4947994;29;20494;-86
2023/03/10 02:04:44;;;;;;;1.55;0.73;;;;;;;;;;4960868;28;20059;-86
2023/03/10 02:07:13;;;;;;;0.90;0.50;;;;;;;;;;4961257;28;20047;-86
2023/03/10 02:09:47;;;;;;;0.90;0.77;;;;;;;;;;4948422;28;20059;-86
2023/03/10 02:12:15;;;;;;;1.00;0.70;;;;;;;;;;4964300;28;20039;-86
2023/03/10 02:14:45;;;;;;;1.58;0.82;;;;;;;;;;4959622;28;20051;-86
2023/03/10 02:17:16;;;;;;;1.23;0.70;;;;;;;;;;4965115;28;20387;-86
2023/03/10 02:20:03;;;;;;;0.90;0.85;;;;;;;;;;4952477;28;20055;-86
2023/03/10 02:22:32;;;;;;;0.57;0.57;;;;;;;;;;4970008;28;20049;-85
2023/03/10 02:25:10;;;;;;;1.10;0.50;;;;;;;;;;4972300;28;20054;-86
2023/03/10 02:27:39;;;;;;;2.50;0.98;;;;;;;;;;4966758;28;20050;-85
2023/03/10 02:30:08;;;;;;;2.90;1.35;;;;;;;;;;4957256;28;20047;-85
2023/03/10 02:32:41;;;;;;;2.28;0.98;;;;;;;;;;4958890;28;20043;-85
2023/03/10 02:35:09;;;;;;;1.08;0.93;;;;;;;;;;4974351;28;20069;-86
2023/03/10 02:37:43;;;;;;;1.38;0.82;;;;;;;;;;4970088;28;20051;-85
2023/03/10 02:40:28;;;;;;;1.00;0.80;;;;;;;;;;4951065;28;20055;-85
2023/03/10 02:42:58;;;;;;;0.80;0.68;;;;;;;;;;4982784;28;20061;-86
2023/03/10 02:45:32;;;;;;;0.47;0.47;;;;;;;;;;4971240;28;20043;-85
2023/03/10 02:48:02;;;;;;;1.42;1.15;;;;;;;;;;4973930;28;20047;-86
2023/03/10 02:50:39;;;;;;;1.58;1.20;;;;;;;;;;4956190;28;20051;-86
2023/03/10 02:53:14;;;;;;;4.03;0.80;;;;;;;;;;4944971;28;20043;-86
2023/03/10 02:55:41;;;;;;;3.97;1.33;;;;;;;;;;4968951;28;20054;-86
2023/03/10 02:58:15;;;;;;;0.88;0.70;;;;;;;;;;4953839;28;20053;-86
2023/03/10 03:00:46;;;;;;;2.13;1.00;;;;;;;;;;4944132;28;20417;-86
2023/03/10 03:03:16;;;;;;;2.90;0.90;;;;;;;;;;4951408;28;20493;-86
2023/03/10 03:05:48;;;;;;;1.10;1.00;;;;;;;;;;4966848;28;20124;-86
2023/03/10 03:08:15;;;;;;;1.77;0.95;;;;;;;;;;4948166;28;20058;-86
2023/03/10 03:10:46;;;;;;;2.22;0.85;;;;;;;;;;4962579;28;20055;-86
2023/03/10 03:13:15;;;;;;;2.47;1.13;;;;;;;;;;4954212;28;20046;-86
2023/03/10 03:15:42;;;;;;;2.20;1.17;;;;;;;;;;4967753;28;20497;-86
2023/03/10 03:18:12;;;;;;;1.63;0.85;;;;;;;;;;4970458;28;20055;-86
2023/03/10 03:20:40;;;;;;;1.90;1.05;;;;;;;;;;4966155;28;20120;-86
2023/03/10 03:23:08;;;;;;;4.35;0.95;;;;;;;;;;4965904;28;20055;-86
2023/03/10 03:25:40;;;;;;;1.90;0.93;;;;;;;;;;4945026;28;20051;-86
2023/03/10 03:28:10;;;;;;;1.45;0.98;;;;;;;;;;4951969;28;20046;-86
2023/03/10 03:30:44;;;;;;;2.45;1.10;;;;;;;;;;4964887;28;20050;-86
2023/03/10 03:33:12;;;;;;;2.47;1.88;;;;;;;;;;4952076;28;20042;-86
2023/03/10 03:35:43;;;;;;;2.10;1.10;;;;;;;;;;4967464;28;20425;-86
2023/03/10 03:38:13;;;;;;;1.60;0.82;;;;;;;;;;4966286;28;20509;-86
2023/03/10 03:40:43;;;;;;;2.17;1.25;;;;;;;;;;4950969;28;20047;-86
2023/03/10 03:43:14;;;;;;;2.38;1.38;;;;;;;;;;4972104;28;20482;-86
2023/03/10 03:45:43;;;;;;;1.88;0.90;;;;;;;;;;4965205;28;20051;-86
2023/03/10 03:48:12;;;;;;;1.25;0.80;;;;;;;;;;4964095;28;20067;-86
2023/03/10 03:50:40;;;;;;;1.33;0.70;;;;;;;;;;4970416;28;20047;-86
2023/03/10 03:53:17;;;;;;;2.28;1.40;;;;;;;;;;4962920;28;20039;-86
2023/03/10 03:55:47;;;;;;;1.52;0.80;;;;;;;;;;4953129;28;20059;-86
2023/03/10 03:58:18;;;;;;;1.70;1.10;;;;;;;;;;4957360;28;20042;-86
2023/03/10 04:00:49;;;;;;;1.27;1.00;;;;;;;;;;4964128;28;20058;-86
2023/03/10 04:03:17;;;;;;;0.98;0.73;;;;;;;;;;4968249;28;20405;-86
2023/03/10 04:05:45;;;;;;;2.30;0.90;;;;;;;;;;4964181;28;20055;-86
2023/03/10 04:08:20;;;;;;;6.13;1.00;;;;;;;;;;4958561;28;20047;-86
2023/03/10 04:10:51;;;;;;;2.72;1.42;;;;;;;;;;4951924;28;20796;-86
2023/03/10 04:13:19;;;;;;;1.08;0.98;;;;;;;;;;4962501;28;20041;-86
2023/03/10 04:15:48;;;;;;;1.85;1.05;;;;;;;;;;4956290;28;20062;-86
2023/03/10 04:18:17;;;;;;;1.13;0.55;;;;;;;;;;4962983;28;20053;-86
2023/03/10 04:20:47;;;;;;;1.42;1.30;;;;;;;;;;4958918;28;20062;-86
2023/03/10 04:23:15;;;;;;;2.63;0.93;;;;;;;;;;4966691;28;20047;-86
2023/03/10 04:25:48;;;;;;;3.90;0.80;;;;;;;;;;4957057;28;20054;-86
2023/03/10 04:28:17;;;;;;;0.80;0.80;;;;;;;;;;4965143;28;20428;-86
2023/03/10 04:30:49;;;;;;;2.10;1.25;;;;;;;;;;4942476;28;20055;-85
2023/03/10 04:33:19;;;;;;;1.40;0.85;;;;;;;;;;4971327;28;20034;-85
2023/03/10 04:35:50;;;;;;;2.97;1.10;;;;;;;;;;4966527;28;20170;-86
2023/03/10 04:38:21;;;;;;;1.38;1.10;;;;;;;;;;4971287;28;20412;-86
2023/03/10 04:40:54;;;;;;;0.80;0.50;;;;;;;;;;4947203;28;20509;-86
2023/03/10 04:43:24;;;;;;;2.35;1.60;;;;;;;;;;4968702;28;20062;-85
2023/03/10 04:45:55;;;;;;;1.95;1.40;;;;;;;;;;4967065;28;20055;-86
2023/03/10 04:48:23;;;;;;;1.30;0.90;;;;;;;;;;4960880;28;20046;-86
2023/03/10 04:50:55;;;;;;;0.90;0.73;;;;;;;;;;4967784;28;20063;-86
2023/03/10 04:53:23;;;;;;;1.45;0.95;;;;;;;;;;4957324;28;20039;-86
2023/03/10 04:55:52;;;;;;;1.13;0.98;;;;;;;;;;4965997;28;20046;-85
2023/03/10 04:58:21;;;;;;;1.42;0.82;;;;;;;;;;4959164;28;20047;-86
2023/03/10 05:00:51;;;;;;;1.45;0.80;;;;;;;;;;4971040;28;20073;-85
2023/03/10 05:03:20;;;;;;;1.90;0.93;;;;;;;;;;4960998;28;20043;-85
2023/03/10 05:05:47;;;;;;;1.10;0.70;;;;;;;;;;4953215;28;20431;-85
2023/03/10 05:08:17;;;;;;;1.65;0.98;;;;;;;;;;4968900;28;20039;-86
2023/03/10 05:10:47;;;;;;;0.80;0.70;;;;;;;;;;4970501;28;20081;-86
2023/03/10 05:13:17;;;;;;;1.13;0.80;;;;;;;;;;4946910;28;20050;-86
2023/03/10 05:15:44;;;;;;;1.33;0.90;;;;;;;;;;4982272;28;20047;-86
2023/03/10 05:18:15;;;;;;;1.63;1.10;;;;;;;;;;4962617;28;20058;-86
2023/03/10 05:20:43;;;;;;;1.38;0.80;;;;;;;;;;4962487;28;20059;-86
2023/03/10 05:23:13;;;;;;;1.45;1.10;;;;;;;;;;4944379;28;20050;-84
2023/03/10 05:25:43;;;;;;;1.67;0.82;;;;;;;;;;4964880;28;20058;-86
2023/03/10 05:28:11;;;;;;;2.47;1.50;;;;;;;;;;4957339;28;20250;-86
2023/03/10 05:30:38;;;;;;;1.63;1.38;;;;;;;;;;4969042;28;20062;-86
2023/03/10 05:33:05;;;;;;;1.92;0.80;;;;;;;;;;4948821;28;20050;-86
2023/03/10 05:35:37;;;;;;;1.25;0.90;;;;;;;;;;4949458;29;20051;-86
2023/03/10 05:38:14;;;;;;;1.48;1.33;;;;;;;;;;4966594;28;20508;-86
2023/03/10 05:40:41;;;;;;;2.28;0.95;;;;;;;;;;4966167;28;20055;-86
2023/03/10 05:43:11;;;;;;;2.38;0.88;;;;;;;;;;4947811;28;20043;-87
2023/03/10 05:45:52;;;;;;;1.53;1.20;;;;;;;;;;4973185;28;20066;-86
2023/03/10 05:48:20;;;;;;;2.70;1.20;;;;;;;;;;4973140;28;20051;-86
2023/03/10 05:50:56;;;;;;;1.60;1.10;;;;;;;;;;4965505;28;20420;-86
2023/03/10 05:53:30;;;;;;;2.67;1.40;;;;;;;;;;4965110;28;20055;-86
2023/03/10 05:55:58;;;;;;;3.00;1.40;;;;;;;;;;4968264;28;20543;-86
2023/03/10 05:58:27;;;;;;;1.55;1.10;;;;;;;;;;4957707;28;20057;-86
2023/03/10 06:00:56;;;;;;;3.47;1.88;;;;;;;;;;4952257;28;20054;-86
2023/03/10 06:03:24;;;;;;;2.30;1.88;;;;;;;;;;4952808;28;20556;-86
2023/03/10 06:05:54;;;;;;;2.22;1.40;;;;;;;;;;4945636;28;20054;-86
2023/03/10 06:08:31;;;;;;;3.90;1.98;;;;;;;;;;4949021;28;20066;-86
2023/03/10 06:10:58;;;;;;;3.22;1.75;;;;;;;;;;4949515;28;20059;-86
2023/03/10 06:13:26;;;;;;;2.50;1.80;;;;;;;;;;4970939;23;20062;-85
2023/03/10 06:15:55;;;;;;;1.90;1.70;;;;;;;;;;4979268;28;20688;-86
2023/03/10 06:18:22;;;;;;;3.10;2.33;;;;;;;;;;4976068;28;20046;-85
2023/03/10 06:20:51;;;;;;;1.98;1.45;;;;;;;;;;4978628;28;20046;-85
2023/03/10 06:23:21;;;;;;;3.15;1.45;;;;;;;;;;4973927;28;20059;-85
2023/03/10 06:25:57;;;;;;;2.72;1.17;;;;;;;;;;4986645;28;20027;-85
2023/03/10 06:28:25;;;;;;;4.45;1.42;;;;;;;;;;4970253;28;20452;-85
2023/03/10 06:30:54;;;;;;;6.43;1.48;;;;;;;;;;4971888;28;20047;-85
2023/03/10 06:33:22;;;;;;;2.30;0.85;;;;;;;;;;4973620;28;20056;-85
2023/03/10 06:35:54;;;;;;;2.33;1.10;;;;;;;;;;4974909;28;20046;-84
2023/03/10 06:38:22;;;;;;;2.83;1.17;;;;;;;;;;4973984;28;20057;-85
2023/03/10 06:40:52;;;;;;;1.55;1.00;;;;;;;;;;4989355;28;20046;-85
2023/03/10 06:43:23;;;;;;;2.28;1.58;;;;;;;;;;4964380;28;20047;-85
2023/03/10 06:45:50;;;;;;;1.65;0.93;;;;;;;;;;4959336;28;20665;-85
2023/03/10 06:48:20;;;;;;;4.30;1.17;;;;;;;;;;4944124;28;20413;-85
2023/03/10 06:50:51;;;;;;;3.22;1.30;;;;;;;;;;4940163;28;20062;-85
2023/03/10 07:08:28;;;;;;;3.42;1.23;;;;;;;;;;4969913;28;20062;-88
2023/03/10 07:10:58;;;;;;;2.53;1.30;;;;;;;;;;4962455;28;20073;-87
2023/03/10 07:13:27;;;;;;;3.53;1.75;;;;;;;;;;4951248;28;20054;-87
2023/03/10 07:15:54;;;;;;;1.98;0.90;;;;;;;;;;4949588;28;20062;-89
2023/03/10 07:18:21;;;;;;;3.47;0.98;;;;;;;;;;4963110;28;20051;-88
2023/03/10 07:20:53;;;;;;;6.22;0.95;;;;;;;;;;4955359;28;20058;-91
2023/03/10 07:23:20;;;;;;;1.27;1.13;;;;;;;;;;4959520;28;20059;-90
2023/03/10 07:25:52;;;;;;;2.10;1.67;;;;;;;;;;4966692;28;20062;-89
2023/03/10 07:28:19;;;;;;;2.53;1.20;;;;;;;;;;4955336;28;20050;-88
2023/03/10 07:30:49;;;;;;;2.25;1.10;;;;;;;;;;4951776;28;20053;-89
2023/03/10 07:33:23;;;;;;;5.15;1.50;;;;;;;;;;4949317;28;20107;-88
2023/03/10 07:35:51;;;;;;;1.45;0.80;;;;;;;;;;4968080;28;20047;-87
2023/03/10 07:38:18;;;;;;;1.92;0.70;;;;;;;;;;4958762;28;20043;-88
2023/03/10 07:40:45;;;;;;;2.67;1.08;;;;;;;;;;4969281;28;20046;-87
2023/03/10 07:43:14;;;;;;;2.45;1.15;;;;;;;;;;4971211;28;20057;-88
2023/03/10 07:45:42;;;;;;;2.05;1.00;;;;;;;;;;4968475;28;20406;-88
2023/03/10 07:48:09;;;;;;;3.28;0.80;;;;;;;;;;4946798;28;20058;-88
2023/03/10 07:50:37;;;;;;;1.98;0.73;;;;;;;;;;4964105;28;20054;-87
2023/03/10 07:53:04;;;;;;;2.17;1.52;;;;;;;;;;4969084;28;20050;-88
2023/03/10 07:55:32;;;;;;;2.05;0.93;;;;;;;;;;4970205;28;20061;-88
2023/03/10 07:58:01;;;;;;;1.98;0.70;;;;;;;;;;4951378;28;20058;-88
2023/03/10 08:00:30;;;;;;;2.17;0.50;;;;;;;;;;4971533;28;20050;-87
2023/03/10 08:02:58;;;;;;;2.15;1.08;;;;;;;;;;4953729;28;20054;-88
2023/03/10 08:05:26;;;;;;;1.00;0.50;;;;;;;;;;4966679;28;20041;-90
2023/03/10 08:07:56;;;;;;;2.03;0.70;;;;;;;;;;4952705;28;20069;-87
2023/03/10 08:10:23;;;;;;;0.80;0.50;;;;;;;;;;4975634;28;20058;-88
2023/03/10 08:12:54;;;;;;;2.05;0.60;;;;;;;;;;4972438;28;20500;-88
2023/03/10 08:15:21;;;;;;;0.75;0.75;;;;;;;;;;4963343;28;20061;-86
2023/03/10 08:17:50;;;;;;;1.17;0.70;;;;;;;;;;4957588;28;20058;-88
2023/03/10 08:20:18;;;;;;;0.77;0.47;;;;;;;;;;4966206;28;20050;-87
2023/03/10 08:22:45;;;;;;;0.75;0.43;;;;;;;;;;4971297;28;20050;-87
2023/03/10 08:25:14;;;;;;;1.00;0.40;;;;;;;;;;4971717;28;20054;-87
2023/03/10 08:27:42;;;;;;;0.93;0.30;;;;;;;;;;4954395;28;20043;-87
2023/03/10 08:30:11;;;;;;;1.60;0.50;;;;;;;;;;4972432;28;20058;-87
2023/03/10 08:32:39;;;;;;;2.25;0.47;;;;;;;;;;4966149;28;20070;-89
2023/03/10 08:35:11;;;;;;;1.50;0.60;;;;;;;;;;4953613;28;20051;-88
2023/03/10 08:37:38;;;;;;;6.53;0.80;;;;;;;;;;4970582;28;20051;-87
2023/03/10 08:40:07;;;;;;;4.22;0.77;;;;;;;;;;4952163;28;20499;-88
2023/03/10 08:42:35;;;;;;;2.17;0.85;;;;;;;;;;4969567;28;20057;-88
2023/03/10 08:45:04;;;;;;;4.70;0.73;;;;;;;;;;4968837;28;20412;-89
2023/03/10 08:47:32;;;;;;;1.48;0.90;;;;;;;;;;4949520;28;20448;-87
2023/03/10 08:49:59;;;;;;;2.22;1.05;;;;;;;;;;4968501;28;20419;-88
2023/03/10 08:52:28;;;;;;;4.57;0.65;;;;;;;;;;4966068;28;20058;-88
2023/03/10 08:54:58;;;;;;;1.50;1.00;;;;;;;;;;4965629;28;20062;-87
2023/03/10 08:57:28;;;;;;;3.40;0.70;;;;;;;;;;4956746;29;20065;-88
2023/03/10 08:59:55;;;;;;;1.95;1.20;;;;;;;;;;4970165;28;20047;-88
2023/03/10 09:02:24;;;;;;;1.73;0.98;;;;;;;;;;4967441;28;20050;-87
2023/03/10 09:04:51;;;;;;;4.22;1.75;;;;;;;;;;4970286;28;20057;-87
2023/03/10 09:07:21;;;;;;;2.35;0.90;;;;;;;;;;4950531;28;20671;-87
2023/03/10 09:09:50;;;;;;;2.17;0.90;;;;;;;;;;4946260;28;20058;-89
2023/03/10 09:12:18;;;;;;;3.55;1.17;;;;;;;;;;4970460;28;20050;-89
2023/03/10 09:14:45;;;;;;;3.70;0.93;;;;;;;;;;4974905;28;20054;-89
2023/03/10 09:17:12;;;;;;;3.30;1.02;;;;;;;;;;4955780;28;20416;-90
2023/03/10 09:19:40;;;;;;;4.15;1.05;;;;;;;;;;4955076;28;20057;-87
2023/03/10 09:22:07;;;;;;;2.22;1.60;;;;;;;;;;4973056;28;20471;-88
2023/03/10 09:24:34;;;;;;;5.30;1.20;;;;;;;;;;4960400;28;20051;-88
2023/03/10 09:27:06;;;;;;;3.65;1.75;;;;;;;;;;4972659;28;20412;-89
2023/03/10 09:29:34;;;;;;;3.95;0.90;;;;;;;;;;4956275;28;20698;-88
2023/03/10 09:32:04;;;;;;;2.25;0.98;;;;;;;;;;4950904;28;20046;-90
2023/03/10 09:34:31;;;;;;;3.42;1.30;;;;;;;;;;4956712;28;20069;-90
2023/03/10 09:36:58;;;;;;;4.85;1.55;;;;;;;;;;4956534;28;20046;-89
2023/03/10 09:39:26;;;;;;;4.15;1.45;;;;;;;;;;4970509;28;20055;-91
2023/03/10 09:42:15;;;;;;;5.82;1.80;;;;;;;;;;4957580;28;20050;-89
2023/03/10 09:44:52;;;;;;;6.57;1.30;;;;;;;;;;4959312;28;20055;-89
2023/03/10 09:47:28;;;;;;;1.92;0.85;;;;;;;;;;4959681;28;20049;-88
2023/03/10 09:50:08;;;;;;;6.38;1.55;;;;;;;;;;4975678;28;20065;-89
2023/03/10 09:52:44;;;;;;;3.15;2.15;;;;;;;;;;4958384;28;20066;-89
2023/03/10 09:55:19;;;;;;;1.80;0.50;;;;;;;;;;4966742;28;20058;-88
2023/03/10 09:57:49;;;;;;;1.25;0.98;;;;;;;;;;4956900;28;20062;-88
2023/03/10 10:00:22;;;;;;;2.15;0.90;;;;;;;;;;4961874;28;20511;-89
2023/03/10 10:02:52;;;;;;;3.55;1.30;;;;;;;;;;4958643;28;20055;-89
2023/03/10 10:05:25;;;;;;;2.65;1.25;;;;;;;;;;4956735;28;20047;-87
2023/03/10 10:07:55;;;;;;;6.93;0.95;;;;;;;;;;4950974;28;20054;-88
2023/03/10 10:10:26;;;;;;;9.23;1.30;;;;;;;;;;4973169;28;20059;-88
2023/03/10 10:13:00;;;;;;;5.97;2.37;;;;;;;;;;4973321;28;20059;-88
2023/03/10 10:15:30;;;;;;;15.10;3.55;;;;;;;;;;4962559;28;20062;-88
2023/03/10 10:18:08;;;;;;;6.07;2.42;;;;;;;;;;4958883;28;20062;-88
2023/03/10 10:20:39;;;;;;;4.80;2.45;;;;;;;;;;4961627;28;20050;-87
2023/03/10 10:23:18;;;;;;;2.85;1.55;;;;;;;;;;4952093;28;20554;-88
2023/03/10 10:25:45;;;;;;;5.15;1.98;;;;;;;;;;4962595;28;20058;-90
2023/03/10 10:28:21;;;;;;;3.17;1.40;;;;;;;;;;4958849;28;20058;-89
2023/03/10 10:30:51;;;;;;;2.65;1.30;;;;;;;;;;4978640;28;20051;-89
2023/03/10 10:33:21;;;;;;;6.18;1.65;;;;;;;;;;4980126;28;20059;-89
2023/03/10 10:36:01;;;;;;;4.63;1.65;;;;;;;;;;4960604;28;20508;-88
2023/03/10 10:38:30;;;;;;;4.60;1.52;;;;;;;;;;4972700;28;20055;-87
2023/03/10 10:41:01;;;;;;;3.85;1.73;;;;;;;;;;4970112;28;20074;-89
2023/03/10 10:43:30;;;;;;;3.42;1.50;;;;;;;;;;4971932;28;20413;-88
2023/03/10 10:49:32;;;;;;;1.48;1.13;;;;;;;;;;4961969;28;20532;-88
2023/03/10 10:52:01;;;;;;;5.75;2.35;;;;;;;;;;4967940;28;20069;-88
2023/03/10 10:54:35;;;;;;;2.20;1.25;;;;;;;;;;4963942;28;20042;-89
2023/03/10 10:57:17;;;;;;;6.50;2.30;;;;;;;;;;4944255;28;20050;-88
2023/03/10 10:59:47;;;;;;;3.65;1.80;;;;;;;;;;4956357;28;20425;-88
2023/03/10 11:02:23;;;;;;;5.47;1.20;;;;;;;;;;4943493;28;20086;-87
2023/03/10 11:04:51;;;;;;;2.70;1.38;;;;;;;;;;4943045;28;20451;-86
2023/03/10 11:07:20;;;;;;;2.42;1.45;;;;;;;;;;4945216;28;20058;-87
2023/03/10 11:09:48;;;;;;;3.67;1.25;;;;;;;;;;4945380;28;20319;-88
2023/03/10 11:12:22;;;;;;;2.53;0.90;;;;;;;;;;4945375;28;20547;-89
2023/03/10 11:15:14;;;;;;;2.22;0.77;;;;;;;;;;4944016;28;20058;-88
2023/03/10 11:17:44;;;;;;;3.28;1.50;;;;;;;;;;4942389;28;20046;-87
2023/03/10 11:20:23;;;;;;;4.73;1.07;;;;;;;;;;4943624;28;20063;-89
2023/03/10 11:22:54;;;;;;;3.88;1.50;;;;;;;;;;4964196;28;20054;-87
2023/03/10 11:25:27;;;;;;;3.65;0.90;;;;;;;;;;4959588;28;20058;-88
2023/03/10 11:28:02;;;;;;;5.90;2.13;;;;;;;;;;4942479;28;20144;-88
2023/03/10 11:30:36;;;;;;;3.58;1.20;;;;;;;;;;4958340;28;20046;-88
2023/03/10 11:33:16;;;;;;;9.88;2.65;;;;;;;;;;4941497;28;20050;-88
2023/03/10 11:35:45;;;;;;;3.05;1.20;;;;;;;;;;4939702;28;20062;-87
2023/03/10 11:38:21;;;;;;;3.70;0.80;;;;;;;;;;4946610;28;20050;-89
2023/03/10 11:40:53;;;;;;;1.90;0.93;;;;;;;;;;4940990;28;20054;-87
2023/03/10 11:43:29;;;;;;;1.70;0.85;;;;;;;;;;4978355;28;20531;-88
2023/03/10 11:46:00;;;;;;;1.40;0.63;;;;;;;;;;4952737;28;20717;-87
2023/03/10 11:48:41;;;;;;;;;;;;;;;;;;4959304;28;20077;-89
2023/03/10 11:51:16;;;;;;;0.73;0.65;;;;;;;;;;4959393;28;19922;-88
2023/03/10 11:53:45;;;;;;;;;;;;;;;;;;4960997;28;20432;-87
2023/03/10 11:56:25;;;;;;;1.52;0.65;;;;;;;;;;4978190;28;19921;-88
2023/03/10 11:58:55;;;;;;;1.10;0.55;;;;;;;;;;4977135;28;20046;-87
2023/03/10 12:01:31;;;;;;;2.28;0.68;;;;;;;;;;4952216;28;20054;-89
2023/03/10 12:04:06;;;;;;;1.00;0.60;;;;;;;;;;4972060;28;20337;-87
2023/03/10 12:06:41;;;;;;;1.10;0.50;;;;;;;;;;4969542;28;20058;-88
2023/03/10 12:09:17;;;;;;;0.60;0.50;;;;;;;;;;4943964;28;20046;-88
2023/03/10 12:11:45;;;;;;;1.25;1.05;;;;;;;;;;4967035;28;20055;-89
2023/03/10 13:32:57;;;;;;;1.00;0.90;;;;;;;;;;5732502;23;20058;-85
2023/03/10 13:35:26;;;;;;;3.65;0.70;;;;;;;;;;4951049;28;20077;-85
2023/03/10 13:38:06;;;;;;;1.42;0.60;;;;;;;;;;4966837;28;20046;-85
2023/03/10 13:40:33;;;;;;;0.30;0.30;;;;;;;;;;4966778;28;20051;-86
2023/03/10 13:43:01;;;;;;;0.50;0.50;;;;;;;;;;4967372;28;20054;-87
2023/03/10 13:45:33;;;;;;;0.93;0.70;;;;;;;;;;4976779;28;20038;-87
2023/03/10 13:48:03;;;;;;;3.70;0.70;;;;;;;;;;4965340;28;20054;-87
2023/03/10 13:50:31;;;;;;;1.17;0.70;;;;;;;;;;4953691;28;20058;-85
2023/03/10 13:52:59;;;;;;;1.00;0.80;;;;;;;;;;4969653;28;20051;-86
2023/03/10 13:55:28;;;;;;;1.23;0.70;;;;;;;;;;4953017;28;20055;-86
2023/03/10 13:58:00;;;;;;;3.33;0.80;;;;;;;;;;4967328;28;20505;-87
2023/03/10 14:00:28;;;;;;;0.73;0.73;;;;;;;;;;4969199;28;20061;-87
2023/03/10 14:02:55;;;;;;;1.00;0.80;;;;;;;;;;4972976;28;20272;-87
2023/03/10 14:05:42;;;;;;;1.13;0.88;;;;;;;;;;4976360;28;20049;-87
2023/03/10 14:08:18;;;;;;;1.85;1.40;;;;;;;;;;4972902;28;20058;-87
2023/03/10 14:10:48;;;;;;;1.50;1.15;;;;;;;;;;4970669;28;20516;-87
2023/03/10 14:13:43;;;;;;;1.17;1.08;;;;;;;;;;4971451;28;20054;-87
2023/03/10 14:16:13;;;;;;;4.13;1.55;;;;;;;;;;4968082;28;20497;-87
2023/03/10 14:18:43;;;;;;;1.40;1.10;;;;;;;;;;4970043;28;20379;-87
2023/03/10 14:21:31;;;;;;;0.93;0.75;;;;;;;;;;4972030;28;20051;-87
2023/03/10 14:24:06;;;;;;;1.10;0.98;;;;;;;;;;4973035;28;20043;-86
2023/03/10 14:26:33;;;;;;;0.75;0.75;;;;;;;;;;4955508;28;20055;-85
2023/03/10 14:29:02;;;;;;;4.35;1.13;;;;;;;;;;4956015;28;20043;-86
2023/03/10 14:31:29;;;;;;;0.50;0.50;;;;;;;;;;4968985;28;20050;-86
2023/03/10 14:33:58;;;;;;;1.35;0.70;;;;;;;;;;4972326;28;20042;-86
2023/03/10 14:36:29;;;;;;;1.15;0.70;;;;;;;;;;4972766;28;20050;-86
2023/03/10 14:38:56;;;;;;;0.50;0.50;;;;;;;;;;4972484;28;20419;-86
2023/03/10 14:41:29;;;;;;;0.93;0.50;;;;;;;;;;4954342;28;20055;-86
2023/03/10 14:43:59;;;;;;;0.40;0.40;;;;;;;;;;4973750;28;20051;-86
2023/03/10 14:46:31;;;;;;;0.38;0.30;;;;;;;;;;4950870;28;20055;-86
2023/03/10 14:48:59;;;;;;;0.75;0.50;;;;;;;;;;4967740;28;20043;-86
2023/03/10 14:51:29;;;;;;;0.45;0.45;;;;;;;;;;4970250;28;20055;-86
2023/03/10 14:53:57;;;;;;;0.40;0.35;;;;;;;;;;4971534;28;20062;-86
2023/03/10 14:56:27;;;;;;;0.52;0.30;;;;;;;;;;4970387;28;20058;-86
2023/03/10 14:58:55;;;;;;;0.70;0.40;;;;;;;;;;4972036;28;21576;-86
2023/03/10 15:01:22;;;;;;;0.82;0.73;;;;;;;;;;4956211;28;20050;-86
2023/03/10 15:03:52;;;;;;;1.05;0.40;;;;;;;;;;4969975;28;20059;-86
2023/03/10 15:06:21;;;;;;;0.30;0.30;;;;;;;;;;4951875;28;20054;-86
2023/03/10 15:08:50;;;;;;;0.38;0.35;;;;;;;;;;4968831;28;20050;-86
2023/03/10 15:11:17;;;;;;;0.20;0.20;;;;;;;;;;4971468;28;20043;-87
2023/03/10 15:13:44;;;;;;;0.52;0.40;;;;;;;;;;4972523;28;20057;-87
2023/03/10 15:16:12;;;;;;;0.65;0.40;;;;;;;;;;4970973;28;20050;-87
2023/03/10 15:18:39;;;;;;;0.88;0.30;;;;;;;;;;4966319;28;20050;-86
2023/03/10 15:21:09;;;;;;;0.60;0.50;;;;;;;;;;4946196;28;20049;-87
2023/03/10 15:23:36;;;;;;;0.30;0.30;;;;;;;;;;4974147;28;20560;-87
2023/03/10 15:26:08;;;;;;;0.40;0.40;;;;;;;;;;4959780;28;20050;-86
2023/03/10 15:28:36;;;;;;;1.73;1.63;;;;;;;;;;4972610;28;20046;-87
2023/03/10 15:31:03;;;;;;;0.50;0.50;;;;;;;;;;4972013;28;20050;-86
2023/03/10 15:33:30;;;;;;;0.30;0.30;;;;;;;;;;4971822;28;20054;-87
2023/03/10 15:35:57;;;;;;;1.23;0.73;;;;;;;;;;4962822;28;20054;-87
2023/03/10 15:38:27;;;;;;;1.02;0.55;;;;;;;;;;4969062;28;20312;-87
2023/03/10 15:40:55;;;;;;;1.40;0.90;;;;;;;;;;4971633;28;20051;-87
2023/03/10 15:43:24;;;;;;;1.33;0.88;;;;;;;;;;4955419;28;20046;-87
2023/03/10 15:45:53;;;;;;;1.30;1.20;;;;;;;;;;4968978;28;20063;-87
2023/03/10 16:12:22;;;;;;;2.47;1.83;;;;;;;;;;4926857;29;20051;-84
2023/03/10 16:14:49;;;;;;;6.57;1.73;;;;;;;;;;4929216;29;20361;-84
2023/03/10 16:17:16;;;;;;;1.42;1.02;;;;;;;;;;4932704;29;20067;-84
2023/03/10 16:19:47;;;;;;;2.20;1.42;;;;;;;;;;4929483;29;20055;-84
2023/03/10 16:22:14;;;;;;;3.13;1.27;;;;;;;;;;4933037;29;20047;-84
2023/03/10 16:24:41;;;;;;;3.30;1.23;;;;;;;;;;4939499;29;20062;-84
2023/03/10 16:27:09;;;;;;;3.72;1.65;;;;;;;;;;4924600;29;20411;-85
2023/03/10 16:29:40;;;;;;;3.03;1.58;;;;;;;;;;4908898;29;20051;-84
2023/03/10 16:32:08;;;;;;;2.75;2.50;;;;;;;;;;4929575;29;20055;-84
2023/03/10 16:34:35;;;;;;;4.75;1.33;;;;;;;;;;4914811;29;20118;-83
2023/03/10 16:37:02;;;;;;;2.45;1.40;;;;;;;;;;4923282;29;20385;-84
2023/03/10 16:39:32;;;;;;;2.15;1.45;;;;;;;;;;4930524;29;20051;-84
2023/03/10 16:41:59;;;;;;;3.03;1.55;;;;;;;;;;4914838;29;20051;-84
2023/03/10 16:44:27;;;;;;;8.73;1.40;;;;;;;;;;4942560;29;20063;-83
2023/03/10 16:46:55;;;;;;;7.22;2.17;;;;;;;;;;4945099;29;20513;-82
2023/03/10 16:49:22;;;;;;;5.38;1.67;;;;;;;;;;4935986;29;20047;-84
2023/03/10 16:51:52;;;;;;;4.57;1.75;;;;;;;;;;4930085;29;20522;-84
2023/03/10 16:54:22;;;;;;;5.53;1.70;;;;;;;;;;4932360;28;20110;-84
2023/03/10 16:56:51;;;;;;;5.10;1.73;;;;;;;;;;4926581;29;20044;-84
2023/03/10 16:59:20;;;;;;;3.08;1.35;;;;;;;;;;4929431;29;20039;-84
2023/03/10 17:01:48;;;;;;;3.15;1.08;;;;;;;;;;4929008;29;20421;-84
2023/03/10 17:04:19;;;;;;;1.92;1.30;;;;;;;;;;4933578;28;20052;-84